Weather at Gloucestershire Airport

Public forecast

Using degrees Celsius for public forecast. Weather courtesy of forecast.io.

Current aviation weather report (METAR) for Gloucestershire Airport

Report is more than 6 hours old.

2022/11/14 15:20 (retrieved 2 years ago)

EGBJ 141520Z 21004KT 5000 -SHRA SCT006 SCT015 13/13 Q1005

Closest aviation forecast (TAF) to Gloucestershire Airport

Forecast is more than 12 hours old.

Closest forecast is RAF Fairford, 18.9 nm (35.1 km) SE.

2023/02/22 16:18 Ammendment (retrieved 1 year ago)

AMD EGVA 221630Z 2216/2319 33009KT 9999 BKN020 OVC028 510753 QNH2990INS BECMG 2217/2218 33006KT 9999 SCT022 OVC035 QNH2999INS BECMG 2305/2306 01012G18KT 9999 FEW023 FEW035 QNH3021INS BECMG 2309/2310 03020G25KT 9999 BKN020 OVC040 510023 QNH3013INS BECMG 2315/2316 02009KT 9999 SCT035 QNH3012INS TX09/2216Z TN04/2304Z LAST NO AMDS AFT 2216 NEXT 2305